sensor_id;sensor_type;location;lat;lon;timestamp;P1;durP1;ratioP1;P2;durP2;ratioP2
52138;SDS011;38131;53.256;6.460;2023-05-10T00:09:27;8.32;;;7.38;;
52138;SDS011;38131;53.256;6.460;2023-05-10T00:14:58;9.70;;;8.35;;
52138;SDS011;38131;53.256;6.460;2023-05-10T00:17:39;8.98;;;7.95;;
52138;SDS011;38131;53.256;6.460;2023-05-10T00:20:05;9.57;;;8.35;;
52138;SDS011;38131;53.256;6.460;2023-05-10T00:22:32;9.77;;;8.73;;
52138;SDS011;38131;53.256;6.460;2023-05-10T00:32:29;10.60;;;8.13;;
52138;SDS011;38131;53.256;6.460;2023-05-10T00:41:21;7.22;;;6.50;;
52138;SDS011;38131;53.256;6.460;2023-05-10T00:44:00;7.78;;;7.00;;
52138;SDS011;38131;53.256;6.460;2023-05-10T00:46:27;7.63;;;6.90;;
52138;SDS011;38131;53.256;6.460;2023-05-10T00:51:59;6.95;;;5.88;;
52138;SDS011;38131;53.256;6.460;2023-05-10T00:57:50;5.65;;;5.15;;
52138;SDS011;38131;53.256;6.460;2023-05-10T01:00:19;6.05;;;5.45;;
52138;SDS011;38131;53.256;6.460;2023-05-10T01:02:50;5.55;;;5.05;;
52138;SDS011;38131;53.256;6.460;2023-05-10T01:05:19;6.18;;;5.55;;
52138;SDS011;38131;53.256;6.460;2023-05-10T01:07:48;6.63;;;6.05;;
52138;SDS011;38131;53.256;6.460;2023-05-10T01:10:14;6.82;;;6.13;;
52138;SDS011;38131;53.256;6.460;2023-05-10T01:15:47;6.47;;;5.78;;
52138;SDS011;38131;53.256;6.460;2023-05-10T01:21:09;8.02;;;7.07;;
52138;SDS011;38131;53.256;6.460;2023-05-10T01:36:01;8.80;;;7.85;;
52138;SDS011;38131;53.256;6.460;2023-05-10T01:39:09;9.25;;;7.30;;
52138;SDS011;38131;53.256;6.460;2023-05-10T01:42:00;8.38;;;7.18;;
52138;SDS011;38131;53.256;6.460;2023-05-10T01:47:53;7.97;;;6.38;;
52138;SDS011;38131;53.256;6.460;2023-05-10T01:50:49;9.10;;;7.22;;
52138;SDS011;38131;53.256;6.460;2023-05-10T01:53:29;7.68;;;6.88;;
52138;SDS011;38131;53.256;6.460;2023-05-10T01:56:04;9.98;;;6.95;;
52138;SDS011;38131;53.256;6.460;2023-05-10T01:58:39;8.60;;;7.70;;
52138;SDS011;38131;53.256;6.460;2023-05-10T02:01:09;8.02;;;7.22;;
52138;SDS011;38131;53.256;6.460;2023-05-10T02:03:47;7.88;;;7.07;;
52138;SDS011;38131;53.256;6.460;2023-05-10T02:06:16;7.22;;;6.38;;
52138;SDS011;38131;53.256;6.460;2023-05-10T02:08:45;6.47;;;5.88;;
52138;SDS011;38131;53.256;6.460;2023-05-10T02:11:19;5.75;;;5.25;;
52138;SDS011;38131;53.256;6.460;2023-05-10T02:13:47;6.05;;;5.55;;
52138;SDS011;38131;53.256;6.460;2023-05-10T02:16:18;6.63;;;6.03;;
52138;SDS011;38131;53.256;6.460;2023-05-10T02:18:52;6.13;;;5.55;;
52138;SDS011;38131;53.256;6.460;2023-05-10T02:21:20;5.90;;;5.40;;
52138;SDS011;38131;53.256;6.460;2023-05-10T02:23:53;6.25;;;5.65;;
52138;SDS011;38131;53.256;6.460;2023-05-10T02:30:01;9.88;;;6.95;;
52138;SDS011;38131;53.256;6.460;2023-05-10T02:32:27;7.93;;;6.72;;
52138;SDS011;38131;53.256;6.460;2023-05-10T02:38:23;9.82;;;8.05;;
52138;SDS011;38131;53.256;6.460;2023-05-10T02:43:51;12.77;;;9.95;;
52138;SDS011;38131;53.256;6.460;2023-05-10T02:46:25;14.30;;;9.77;;
52138;SDS011;38131;53.256;6.460;2023-05-10T02:48:51;16.55;;;11.25;;
52138;SDS011;38131;53.256;6.460;2023-05-10T02:51:23;17.30;;;10.55;;
52138;SDS011;38131;53.256;6.460;2023-05-10T02:53:56;15.95;;;11.05;;
52138;SDS011;38131;53.256;6.460;2023-05-10T02:58:58;15.63;;;10.23;;
52138;SDS011;38131;53.256;6.460;2023-05-10T03:05:17;16.98;;;11.52;;
52138;SDS011;38131;53.256;6.460;2023-05-10T03:07:44;14.90;;;10.73;;
52138;SDS011;38131;53.256;6.460;2023-05-10T03:16:46;15.85;;;11.43;;
52138;SDS011;38131;53.256;6.460;2023-05-10T03:19:39;15.35;;;11.63;;
52138;SDS011;38131;53.256;6.460;2023-05-10T03:22:18;18.73;;;11.52;;
52138;SDS011;38131;53.256;6.460;2023-05-10T03:25:49;15.23;;;10.90;;
52138;SDS011;38131;53.256;6.460;2023-05-10T03:28:24;19.45;;;10.93;;
52138;SDS011;38131;53.256;6.460;2023-05-10T03:30:54;17.17;;;11.13;;
52138;SDS011;38131;53.256;6.460;2023-05-10T03:40:15;15.80;;;9.70;;
52138;SDS011;38131;53.256;6.460;2023-05-10T03:49:01;8.27;;;6.30;;
52138;SDS011;38131;53.256;6.460;2023-05-10T03:54:17;11.52;;;5.72;;
52138;SDS011;38131;53.256;6.460;2023-05-10T03:56:45;5.97;;;5.35;;
52138;SDS011;38131;53.256;6.460;2023-05-10T04:08:42;6.15;;;4.82;;
52138;SDS011;38131;53.256;6.460;2023-05-10T04:13:58;4.80;;;4.40;;
52138;SDS011;38131;53.256;6.460;2023-05-10T04:16:24;5.20;;;4.70;;
52138;SDS011;38131;53.256;6.460;2023-05-10T04:18:53;5.60;;;4.45;;
52138;SDS011;38131;53.256;6.460;2023-05-10T04:21:19;5.28;;;4.05;;
52138;SDS011;38131;53.256;6.460;2023-05-10T04:23:45;6.03;;;4.30;;
52138;SDS011;38131;53.256;6.460;2023-05-10T04:33:41;3.95;;;3.65;;
52138;SDS011;38131;53.256;6.460;2023-05-10T04:36:08;4.00;;;3.60;;
52138;SDS011;38131;53.256;6.460;2023-05-10T04:38:36;3.95;;;3.72;;
52138;SDS011;38131;53.256;6.460;2023-05-10T04:44:17;4.57;;;4.10;;
52138;SDS011;38131;53.256;6.460;2023-05-10T04:50:43;5.10;;;4.50;;
52138;SDS011;38131;53.256;6.460;2023-05-10T04:53:12;5.38;;;4.88;;
52138;SDS011;38131;53.256;6.460;2023-05-10T04:55:41;5.20;;;4.70;;
52138;SDS011;38131;53.256;6.460;2023-05-10T04:58:11;7.78;;;4.65;;
52138;SDS011;38131;53.256;6.460;2023-05-10T05:00:54;5.22;;;4.68;;
52138;SDS011;38131;53.256;6.460;2023-05-10T05:03:21;4.93;;;4.03;;
52138;SDS011;38131;53.256;6.460;2023-05-10T05:05:47;4.80;;;4.40;;
52138;SDS011;38131;53.256;6.460;2023-05-10T05:08:14;4.43;;;4.03;;
52138;SDS011;38131;53.256;6.460;2023-05-10T05:10:49;5.80;;;4.25;;
52138;SDS011;38131;53.256;6.460;2023-05-10T05:13:15;5.07;;;4.57;;
52138;SDS011;38131;53.256;6.460;2023-05-10T05:15:56;4.60;;;4.13;;
52138;SDS011;38131;53.256;6.460;2023-05-10T05:18:26;5.45;;;4.00;;
52138;SDS011;38131;53.256;6.460;2023-05-10T05:20:52;5.32;;;4.82;;
52138;SDS011;38131;53.256;6.460;2023-05-10T05:26:08;5.53;;;4.95;;
52138;SDS011;38131;53.256;6.460;2023-05-10T05:32:17;6.03;;;4.65;;
52138;SDS011;38131;53.256;6.460;2023-05-10T05:34:48;4.65;;;4.25;;
52138;SDS011;38131;53.256;6.460;2023-05-10T05:37:20;5.38;;;4.00;;
52138;SDS011;38131;53.256;6.460;2023-05-10T05:39:47;3.25;;;2.95;;
52138;SDS011;38131;53.256;6.460;2023-05-10T05:45:04;2.53;;;2.35;;
52138;SDS011;38131;53.256;6.460;2023-05-10T05:50:40;1.95;;;1.85;;
52138;SDS011;38131;53.256;6.460;2023-05-10T05:55:39;1.20;;;1.10;;
52138;SDS011;38131;53.256;6.460;2023-05-10T05:58:06;1.15;;;1.10;;
52138;SDS011;38131;53.256;6.460;2023-05-10T06:00:43;0.57;;;0.57;;
52138;SDS011;38131;53.256;6.460;2023-05-10T06:03:12;1.35;;;0.60;;
52138;SDS011;38131;53.256;6.460;2023-05-10T06:05:55;0.40;;;0.40;;
52138;SDS011;38131;53.256;6.460;2023-05-10T06:08:21;0.52;;;0.52;;
52138;SDS011;38131;53.256;6.460;2023-05-10T06:10:50;0.77;;;0.77;;
52138;SDS011;38131;53.256;6.460;2023-05-10T06:13:16;0.98;;;0.98;;
52138;SDS011;38131;53.256;6.460;2023-05-10T06:15:50;2.30;;;1.50;;
52138;SDS011;38131;53.256;6.460;2023-05-10T06:18:16;2.10;;;1.90;;
52138;SDS011;38131;53.256;6.460;2023-05-10T06:20:49;3.58;;;3.28;;
52138;SDS011;38131;53.256;6.460;2023-05-10T06:26:06;9.90;;;8.32;;
52138;SDS011;38131;53.256;6.460;2023-05-10T06:28:33;11.70;;;9.60;;
52138;SDS011;38131;53.256;6.460;2023-05-10T06:30:59;13.15;;;9.98;;
52138;SDS011;38131;53.256;6.460;2023-05-10T06:33:26;14.80;;;11.77;;
52138;SDS011;38131;53.256;6.460;2023-05-10T06:35:56;11.25;;;9.20;;
52138;SDS011;38131;53.256;6.460;2023-05-10T06:38:22;10.70;;;9.60;;
52138;SDS011;38131;53.256;6.460;2023-05-10T06:40:52;17.50;;;11.80;;
52138;SDS011;38131;53.256;6.460;2023-05-10T06:43:18;13.95;;;12.07;;
52138;SDS011;38131;53.256;6.460;2023-05-10T06:49:32;9.27;;;8.20;;
52138;SDS011;38131;53.256;6.460;2023-05-10T06:52:00;9.32;;;7.75;;
52138;SDS011;38131;53.256;6.460;2023-05-10T06:54:28;7.47;;;6.65;;
52138;SDS011;38131;53.256;6.460;2023-05-10T06:57:00;7.90;;;6.38;;
52138;SDS011;38131;53.256;6.460;2023-05-10T07:02:49;6.00;;;5.40;;
52138;SDS011;38131;53.256;6.460;2023-05-10T07:08:20;4.88;;;4.03;;
52138;SDS011;38131;53.256;6.460;2023-05-10T07:10:49;3.90;;;3.60;;
52138;SDS011;38131;53.256;6.460;2023-05-10T07:16:27;3.25;;;2.95;;
52138;SDS011;38131;53.256;6.460;2023-05-10T07:18:54;3.40;;;3.10;;
52138;SDS011;38131;53.256;6.460;2023-05-10T07:21:20;2.53;;;2.25;;
52138;SDS011;38131;53.256;6.460;2023-05-10T07:23:56;1.88;;;1.77;;
52138;SDS011;38131;53.256;6.460;2023-05-10T07:26:22;1.38;;;1.35;;
52138;SDS011;38131;53.256;6.460;2023-05-10T07:31:19;0.93;;;0.82;;
52138;SDS011;38131;53.256;6.460;2023-05-10T07:33:45;0.90;;;0.90;;
52138;SDS011;38131;53.256;6.460;2023-05-10T07:36:28;0.70;;;0.70;;
52138;SDS011;38131;53.256;6.460;2023-05-10T07:38:54;1.25;;;0.95;;
52138;SDS011;38131;53.256;6.460;2023-05-10T07:41:23;1.25;;;1.25;;
52138;SDS011;38131;53.256;6.460;2023-05-10T07:43:49;1.73;;;1.63;;
52138;SDS011;38131;53.256;6.460;2023-05-10T07:48:45;1.50;;;1.50;;
52138;SDS011;38131;53.256;6.460;2023-05-10T07:51:11;2.28;;;2.00;;
52138;SDS011;38131;53.256;6.460;2023-05-10T07:53:38;2.03;;;1.92;;
52138;SDS011;38131;53.256;6.460;2023-05-10T07:59:18;5.88;;;3.08;;
52138;SDS011;38131;53.256;6.460;2023-05-10T08:01:44;4.65;;;3.25;;
52138;SDS011;38131;53.256;6.460;2023-05-10T08:04:10;4.47;;;2.90;;
52138;SDS011;38131;53.256;6.460;2023-05-10T08:06:46;3.60;;;2.70;;
52138;SDS011;38131;53.256;6.460;2023-05-10T08:09:12;3.88;;;3.00;;
52138;SDS011;38131;53.256;6.460;2023-05-10T08:11:38;3.35;;;2.97;;
52138;SDS011;38131;53.256;6.460;2023-05-10T08:14:04;2.97;;;2.78;;
52138;SDS011;38131;53.256;6.460;2023-05-10T08:16:31;4.38;;;3.33;;
52138;SDS011;38131;53.256;6.460;2023-05-10T08:18:57;4.05;;;3.65;;
52138;SDS011;38131;53.256;6.460;2023-05-10T08:21:33;3.92;;;3.63;;
52138;SDS011;38131;53.256;6.460;2023-05-10T08:26:47;4.63;;;4.22;;
52138;SDS011;38131;53.256;6.460;2023-05-10T08:29:16;4.45;;;4.03;;
52138;SDS011;38131;53.256;6.460;2023-05-10T08:31:42;3.55;;;3.25;;
52138;SDS011;38131;53.256;6.460;2023-05-10T08:34:08;3.40;;;3.08;;
52138;SDS011;38131;53.256;6.460;2023-05-10T08:36:34;2.63;;;2.40;;
52138;SDS011;38131;53.256;6.460;2023-05-10T08:39:01;2.40;;;2.20;;
52138;SDS011;38131;53.256;6.460;2023-05-10T08:41:30;2.28;;;1.98;;
52138;SDS011;38131;53.256;6.460;2023-05-10T08:44:32;3.58;;;2.47;;
52138;SDS011;38131;53.256;6.460;2023-05-10T08:47:53;6.13;;;2.90;;
52138;SDS011;38131;53.256;6.460;2023-05-10T08:51:10;3.10;;;2.90;;
52138;SDS011;38131;53.256;6.460;2023-05-10T08:54:05;4.82;;;3.17;;
52138;SDS011;38131;53.256;6.460;2023-05-10T08:56:31;3.95;;;3.58;;
52138;SDS011;38131;53.256;6.460;2023-05-10T09:02:36;5.82;;;3.40;;
52138;SDS011;38131;53.256;6.460;2023-05-10T09:05:06;4.57;;;3.72;;
52138;SDS011;38131;53.256;6.460;2023-05-10T09:11:19;4.30;;;3.90;;
52138;SDS011;38131;53.256;6.460;2023-05-10T09:17:11;7.40;;;4.30;;
52138;SDS011;38131;53.256;6.460;2023-05-10T09:19:38;4.03;;;3.22;;
52138;SDS011;38131;53.256;6.460;2023-05-10T09:22:17;3.95;;;3.47;;
52138;SDS011;38131;53.256;6.460;2023-05-10T09:24:43;3.50;;;3.20;;
52138;SDS011;38131;53.256;6.460;2023-05-10T09:32:59;5.53;;;3.17;;
52138;SDS011;38131;53.256;6.460;2023-05-10T09:38:13;3.47;;;3.15;;
52138;SDS011;38131;53.256;6.460;2023-05-10T09:40:50;3.38;;;3.08;;
52138;SDS011;38131;53.256;6.460;2023-05-10T09:43:20;5.53;;;3.03;;
52138;SDS011;38131;53.256;6.460;2023-05-10T09:45:52;3.88;;;3.00;;
52138;SDS011;38131;53.256;6.460;2023-05-10T09:48:23;3.85;;;3.05;;
52138;SDS011;38131;53.256;6.460;2023-05-10T09:50:58;5.25;;;3.05;;
52138;SDS011;38131;53.256;6.460;2023-05-10T09:53:24;3.58;;;2.53;;
52138;SDS011;38131;53.256;6.460;2023-05-10T09:55:52;3.75;;;3.40;;
52138;SDS011;38131;53.256;6.460;2023-05-10T09:58:18;2.97;;;2.67;;
52138;SDS011;38131;53.256;6.460;2023-05-10T10:00:44;2.72;;;2.53;;
52138;SDS011;38131;53.256;6.460;2023-05-10T10:03:17;2.78;;;2.28;;
52138;SDS011;38131;53.256;6.460;2023-05-10T10:05:46;5.00;;;2.75;;
52138;SDS011;38131;53.256;6.460;2023-05-10T10:08:13;3.20;;;2.97;;
52138;SDS011;38131;53.256;6.460;2023-05-10T10:10:40;3.95;;;2.97;;
52138;SDS011;38131;53.256;6.460;2023-05-10T10:13:08;2.90;;;2.58;;
52138;SDS011;38131;53.256;6.460;2023-05-10T10:15:39;2.78;;;2.58;;
52138;SDS011;38131;53.256;6.460;2023-05-10T10:20:54;3.33;;;2.55;;
52138;SDS011;38131;53.256;6.460;2023-05-10T10:23:21;3.67;;;2.28;;
52138;SDS011;38131;53.256;6.460;2023-05-10T10:25:48;2.78;;;2.53;;
52138;SDS011;38131;53.256;6.460;2023-05-10T10:30:53;6.07;;;4.00;;
52138;SDS011;38131;53.256;6.460;2023-05-10T10:36:05;4.78;;;3.95;;
52138;SDS011;38131;53.256;6.460;2023-05-10T10:45:01;4.40;;;4.00;;
52138;SDS011;38131;53.256;6.460;2023-05-10T10:52:13;5.50;;;4.97;;
52138;SDS011;38131;53.256;6.460;2023-05-10T10:54:51;7.18;;;5.10;;
52138;SDS011;38131;53.256;6.460;2023-05-10T10:57:19;7.82;;;6.20;;
52138;SDS011;38131;53.256;6.460;2023-05-10T10:59:46;12.85;;;7.60;;
52138;SDS011;38131;53.256;6.460;2023-05-10T11:04:58;11.43;;;7.57;;
52138;SDS011;38131;53.256;6.460;2023-05-10T11:07:33;12.60;;;8.68;;
52138;SDS011;38131;53.256;6.460;2023-05-10T11:10:03;12.18;;;7.38;;
52138;SDS011;38131;53.256;6.460;2023-05-10T11:12:30;10.38;;;7.45;;
52138;SDS011;38131;53.256;6.460;2023-05-10T11:14:57;13.32;;;8.55;;
52138;SDS011;38131;53.256;6.460;2023-05-10T11:17:26;10.40;;;7.90;;
52138;SDS011;38131;53.256;6.460;2023-05-10T11:22:58;11.70;;;8.13;;
52138;SDS011;38131;53.256;6.460;2023-05-10T11:25:45;13.65;;;8.85;;
52138;SDS011;38131;53.256;6.460;2023-05-10T11:28:11;11.90;;;8.88;;
52138;SDS011;38131;53.256;6.460;2023-05-10T11:30:38;12.02;;;8.18;;
52138;SDS011;38131;53.256;6.460;2023-05-10T11:33:08;14.25;;;8.30;;
52138;SDS011;38131;53.256;6.460;2023-05-10T11:35:39;12.52;;;8.13;;
52138;SDS011;38131;53.256;6.460;2023-05-10T11:38:08;10.55;;;8.63;;
52138;SDS011;38131;53.256;6.460;2023-05-10T11:40:37;12.65;;;8.77;;
52138;SDS011;38131;53.256;6.460;2023-05-10T11:43:04;13.18;;;9.00;;
52138;SDS011;38131;53.256;6.460;2023-05-10T11:45:34;11.02;;;8.48;;
52138;SDS011;38131;53.256;6.460;2023-05-10T11:48:00;12.85;;;8.80;;
52138;SDS011;38131;53.256;6.460;2023-05-10T11:50:30;14.73;;;9.40;;
52138;SDS011;38131;53.256;6.460;2023-05-10T11:52:56;11.00;;;7.85;;
52138;SDS011;38131;53.256;6.460;2023-05-10T11:55:22;13.32;;;9.15;;
52138;SDS011;38131;53.256;6.460;2023-05-10T11:57:52;18.25;;;10.43;;
52138;SDS011;38131;53.256;6.460;2023-05-10T12:00:19;17.25;;;10.32;;
52138;SDS011;38131;53.256;6.460;2023-05-10T12:02:45;14.63;;;10.07;;
52138;SDS011;38131;53.256;6.460;2023-05-10T12:05:11;14.63;;;10.05;;
52138;SDS011;38131;53.256;6.460;2023-05-10T12:07:38;13.68;;;9.65;;
52138;SDS011;38131;53.256;6.460;2023-05-10T12:10:04;15.02;;;9.57;;
52138;SDS011;38131;53.256;6.460;2023-05-10T12:12:36;12.20;;;9.73;;
52138;SDS011;38131;53.256;6.460;2023-05-10T12:15:18;11.27;;;8.73;;
52138;SDS011;38131;53.256;6.460;2023-05-10T12:17:49;10.88;;;8.63;;
52138;SDS011;38131;53.256;6.460;2023-05-10T12:20:19;10.40;;;8.30;;
52138;SDS011;38131;53.256;6.460;2023-05-10T12:22:50;9.85;;;8.15;;
52138;SDS011;38131;53.256;6.460;2023-05-10T12:25:24;11.20;;;8.63;;
52138;SDS011;38131;53.256;6.460;2023-05-10T12:27:56;11.07;;;8.52;;
52138;SDS011;38131;53.256;6.460;2023-05-10T12:30:26;10.95;;;7.95;;
52138;SDS011;38131;53.256;6.460;2023-05-10T12:32:53;10.82;;;7.60;;
52138;SDS011;38131;53.256;6.460;2023-05-10T12:35:24;9.27;;;7.10;;
52138;SDS011;38131;53.256;6.460;2023-05-10T12:37:50;9.40;;;7.97;;
52138;SDS011;38131;53.256;6.460;2023-05-10T12:40:16;8.77;;;7.18;;
52138;SDS011;38131;53.256;6.460;2023-05-10T12:42:42;10.73;;;7.85;;
52138;SDS011;38131;53.256;6.460;2023-05-10T12:45:11;11.13;;;7.78;;
52138;SDS011;38131;53.256;6.460;2023-05-10T12:47:37;9.27;;;7.45;;
52138;SDS011;38131;53.256;6.460;2023-05-10T12:50:04;10.88;;;8.40;;
52138;SDS011;38131;53.256;6.460;2023-05-10T12:52:30;11.55;;;7.75;;
52138;SDS011;38131;53.256;6.460;2023-05-10T12:54:57;11.88;;;7.85;;
52138;SDS011;38131;53.256;6.460;2023-05-10T12:57:23;9.45;;;6.75;;
52138;SDS011;38131;53.256;6.460;2023-05-10T12:59:50;9.25;;;6.82;;
52138;SDS011;38131;53.256;6.460;2023-05-10T13:02:15;8.80;;;6.43;;
52138;SDS011;38131;53.256;6.460;2023-05-10T13:04:43;10.27;;;7.20;;
52138;SDS011;38131;53.256;6.460;2023-05-10T13:07:12;8.77;;;7.03;;
52138;SDS011;38131;53.256;6.460;2023-05-10T13:09:37;7.95;;;6.55;;
52138;SDS011;38131;53.256;6.460;2023-05-10T13:12:03;9.25;;;6.43;;
52138;SDS011;38131;53.256;6.460;2023-05-10T13:14:29;7.47;;;6.68;;
52138;SDS011;38131;53.256;6.460;2023-05-10T13:16:56;8.40;;;6.70;;
52138;SDS011;38131;53.256;6.460;2023-05-10T13:19:21;10.90;;;7.70;;
52138;SDS011;38131;53.256;6.460;2023-05-10T13:21:47;8.32;;;6.47;;
52138;SDS011;38131;53.256;6.460;2023-05-10T13:24:13;8.10;;;6.63;;
52138;SDS011;38131;53.256;6.460;2023-05-10T13:26:39;6.45;;;5.80;;
52138;SDS011;38131;53.256;6.460;2023-05-10T13:29:06;10.15;;;6.28;;
52138;SDS011;38131;53.256;6.460;2023-05-10T13:31:33;9.80;;;5.95;;
52138;SDS011;38131;53.256;6.460;2023-05-10T13:33:59;8.88;;;5.93;;
52138;SDS011;38131;53.256;6.460;2023-05-10T13:36:26;7.55;;;6.15;;
52138;SDS011;38131;53.256;6.460;2023-05-10T13:38:51;7.30;;;6.47;;
52138;SDS011;38131;53.256;6.460;2023-05-10T13:41:17;8.18;;;6.45;;
52138;SDS011;38131;53.256;6.460;2023-05-10T13:43:45;8.93;;;6.78;;
52138;SDS011;38131;53.256;6.460;2023-05-10T13:46:13;10.52;;;8.60;;
52138;SDS011;38131;53.256;6.460;2023-05-10T13:48:39;10.02;;;7.78;;
52138;SDS011;38131;53.256;6.460;2023-05-10T13:51:08;17.63;;;8.07;;
52138;SDS011;38131;53.256;6.460;2023-05-10T13:53:34;9.70;;;7.35;;
52138;SDS011;38131;53.256;6.460;2023-05-10T13:56:00;9.10;;;6.90;;
52138;SDS011;38131;53.256;6.460;2023-05-10T13:58:27;8.55;;;6.97;;
52138;SDS011;38131;53.256;6.460;2023-05-10T14:00:52;8.93;;;6.68;;
52138;SDS011;38131;53.256;6.460;2023-05-10T14:03:21;9.50;;;6.43;;
52138;SDS011;38131;53.256;6.460;2023-05-10T14:05:50;11.95;;;8.10;;
52138;SDS011;38131;53.256;6.460;2023-05-10T14:08:15;10.57;;;7.80;;
52138;SDS011;38131;53.256;6.460;2023-05-10T14:10:42;10.38;;;7.35;;
52138;SDS011;38131;53.256;6.460;2023-05-10T14:13:08;9.25;;;6.68;;
52138;SDS011;38131;53.256;6.460;2023-05-10T14:18:11;12.65;;;9.75;;
52138;SDS011;38131;53.256;6.460;2023-05-10T14:20:37;8.13;;;6.97;;
52138;SDS011;38131;53.256;6.460;2023-05-10T14:23:05;12.50;;;8.30;;
52138;SDS011;38131;53.256;6.460;2023-05-10T14:25:30;11.75;;;8.30;;
52138;SDS011;38131;53.256;6.460;2023-05-10T14:27:56;12.80;;;9.02;;
52138;SDS011;38131;53.256;6.460;2023-05-10T14:30:22;12.82;;;8.75;;
52138;SDS011;38131;53.256;6.460;2023-05-10T14:32:48;13.10;;;9.82;;
52138;SDS011;38131;53.256;6.460;2023-05-10T14:35:14;13.73;;;10.02;;
52138;SDS011;38131;53.256;6.460;2023-05-10T14:37:40;18.55;;;12.65;;
52138;SDS011;38131;53.256;6.460;2023-05-10T14:40:11;14.80;;;11.70;;
52138;SDS011;38131;53.256;6.460;2023-05-10T14:42:44;13.55;;;9.45;;
52138;SDS011;38131;53.256;6.460;2023-05-10T14:45:13;11.75;;;9.27;;
52138;SDS011;38131;53.256;6.460;2023-05-10T14:47:39;11.63;;;8.93;;
52138;SDS011;38131;53.256;6.460;2023-05-10T14:50:09;10.57;;;8.73;;
52138;SDS011;38131;53.256;6.460;2023-05-10T14:52:38;13.40;;;9.82;;
52138;SDS011;38131;53.256;6.460;2023-05-10T14:55:04;11.57;;;8.52;;
52138;SDS011;38131;53.256;6.460;2023-05-10T14:57:31;10.00;;;8.00;;
52138;SDS011;38131;53.256;6.460;2023-05-10T15:00:15;12.23;;;10.80;;
52138;SDS011;38131;53.256;6.460;2023-05-10T15:02:43;9.07;;;7.70;;
52138;SDS011;38131;53.256;6.460;2023-05-10T15:05:09;10.25;;;7.47;;
52138;SDS011;38131;53.256;6.460;2023-05-10T15:10:56;9.93;;;7.35;;
52138;SDS011;38131;53.256;6.460;2023-05-10T15:19:25;11.23;;;8.85;;
52138;SDS011;38131;53.256;6.460;2023-05-10T15:21:53;9.77;;;8.55;;
52138;SDS011;38131;53.256;6.460;2023-05-10T15:27:00;11.98;;;9.07;;
52138;SDS011;38131;53.256;6.460;2023-05-10T15:29:29;12.57;;;8.80;;
52138;SDS011;38131;53.256;6.460;2023-05-10T15:35:58;10.77;;;9.40;;
52138;SDS011;38131;53.256;6.460;2023-05-10T15:45:05;8.35;;;7.18;;
52138;SDS011;38131;53.256;6.460;2023-05-10T15:47:33;8.15;;;6.97;;
52138;SDS011;38131;53.256;6.460;2023-05-10T15:49:59;8.27;;;6.63;;
52138;SDS011;38131;53.256;6.460;2023-05-10T15:52:27;7.38;;;6.30;;
52138;SDS011;38131;53.256;6.460;2023-05-10T15:54:55;6.23;;;5.30;;
52138;SDS011;38131;53.256;6.460;2023-05-10T16:00:38;6.45;;;5.35;;
52138;SDS011;38131;53.256;6.460;2023-05-10T16:06:46;5.72;;;4.57;;
52138;SDS011;38131;53.256;6.460;2023-05-10T16:13:39;6.03;;;5.43;;
52138;SDS011;38131;53.256;6.460;2023-05-10T16:16:05;5.97;;;5.38;;
52138;SDS011;38131;53.256;6.460;2023-05-10T16:18:59;6.50;;;5.60;;
52138;SDS011;38131;53.256;6.460;2023-05-10T16:21:34;6.18;;;5.03;;
52138;SDS011;38131;53.256;6.460;2023-05-10T16:44:25;5.00;;;4.20;;
52138;SDS011;38131;53.256;6.460;2023-05-10T16:47:04;4.07;;;3.67;;
52138;SDS011;38131;53.256;6.460;2023-05-10T16:49:34;4.45;;;3.63;;
52138;SDS011;38131;53.256;6.460;2023-05-10T16:52:00;4.20;;;3.83;;
52138;SDS011;38131;53.256;6.460;2023-05-10T17:01:54;4.50;;;4.00;;
52138;SDS011;38131;53.256;6.460;2023-05-10T17:08:05;5.32;;;4.40;;
52138;SDS011;38131;53.256;6.460;2023-05-10T17:23:54;9.35;;;4.18;;
52138;SDS011;38131;53.256;6.460;2023-05-10T17:26:23;3.78;;;3.47;;
52138;SDS011;38131;53.256;6.460;2023-05-10T17:36:46;8.48;;;5.00;;
52138;SDS011;38131;53.256;6.460;2023-05-10T17:39:24;4.97;;;4.50;;
52138;SDS011;38131;53.256;6.460;2023-05-10T17:41:50;5.50;;;4.72;;
52138;SDS011;38131;53.256;6.460;2023-05-10T17:44:18;5.80;;;4.63;;
52138;SDS011;38131;53.256;6.460;2023-05-10T18:11:30;6.88;;;5.95;;
52138;SDS011;38131;53.256;6.460;2023-05-10T18:13:59;9.33;;;5.00;;
52138;SDS011;38131;53.256;6.460;2023-05-10T21:40:44;7.15;;;3.50;;
52138;SDS011;38131;53.256;6.460;2023-05-10T21:50:40;3.22;;;2.90;;
52138;SDS011;38131;53.256;6.460;2023-05-10T22:08:48;5.63;;;2.78;;
52138;SDS011;38131;53.256;6.460;2023-05-10T22:18:45;3.72;;;3.28;;
52138;SDS011;38131;53.256;6.460;2023-05-10T22:31:28;25.47;;;4.00;;
52138;SDS011;38131;53.256;6.460;2023-05-10T22:33:54;4.13;;;3.72;;
